sensor_id;sensor_type;location;lat;lon;timestamp;P1;durP1;ratioP1;P2;durP2;ratioP2
63218;SDS011;49320;52.512;13.448;2022-12-24T00:01:02;5.55;;;4.97;;
63218;SDS011;49320;52.512;13.448;2022-12-24T00:03:31;6.20;;;5.50;;
63218;SDS011;49320;52.512;13.448;2022-12-24T00:06:03;5.60;;;5.00;;
63218;SDS011;49320;52.512;13.448;2022-12-24T00:08:35;5.68;;;5.05;;
63218;SDS011;49320;52.512;13.448;2022-12-24T00:11:02;7.15;;;5.35;;
63218;SDS011;49320;52.512;13.448;2022-12-24T00:13:29;6.97;;;4.85;;
63218;SDS011;49320;52.512;13.448;2022-12-24T00:15:56;5.70;;;5.05;;
63218;SDS011;49320;52.512;13.448;2022-12-24T00:18:24;6.18;;;5.03;;
63218;SDS011;49320;52.512;13.448;2022-12-24T00:20:50;6.13;;;5.10;;
63218;SDS011;49320;52.512;13.448;2022-12-24T00:23:18;6.38;;;5.35;;
63218;SDS011;49320;52.512;13.448;2022-12-24T00:25:46;5.85;;;5.25;;
63218;SDS011;49320;52.512;13.448;2022-12-24T00:28:13;6.10;;;5.25;;
63218;SDS011;49320;52.512;13.448;2022-12-24T00:30:42;5.85;;;5.20;;
63218;SDS011;49320;52.512;13.448;2022-12-24T00:33:09;5.45;;;4.95;;
63218;SDS011;49320;52.512;13.448;2022-12-24T00:35:36;5.40;;;4.90;;
63218;SDS011;49320;52.512;13.448;2022-12-24T00:38:05;5.47;;;4.70;;
63218;SDS011;49320;52.512;13.448;2022-12-24T00:40:33;6.22;;;5.18;;
63218;SDS011;49320;52.512;13.448;2022-12-24T00:43:01;5.75;;;4.93;;
63218;SDS011;49320;52.512;13.448;2022-12-24T00:45:27;5.75;;;5.15;;
63218;SDS011;49320;52.512;13.448;2022-12-24T00:47:55;6.15;;;5.15;;
63218;SDS011;49320;52.512;13.448;2022-12-24T00:50:22;5.78;;;4.65;;
63218;SDS011;49320;52.512;13.448;2022-12-24T00:52:48;5.88;;;4.57;;
63218;SDS011;49320;52.512;13.448;2022-12-24T00:55:15;5.50;;;4.45;;
63218;SDS011;49320;52.512;13.448;2022-12-24T00:57:42;6.40;;;4.20;;
63218;SDS011;49320;52.512;13.448;2022-12-24T01:00:09;5.40;;;4.60;;
63218;SDS011;49320;52.512;13.448;2022-12-24T01:02:36;4.78;;;4.32;;
63218;SDS011;49320;52.512;13.448;2022-12-24T01:05:04;5.45;;;4.38;;
63218;SDS011;49320;52.512;13.448;2022-12-24T01:07:37;6.03;;;5.10;;
63218;SDS011;49320;52.512;13.448;2022-12-24T01:10:10;4.93;;;4.28;;
63218;SDS011;49320;52.512;13.448;2022-12-24T01:12:40;4.93;;;4.32;;
63218;SDS011;49320;52.512;13.448;2022-12-24T01:15:07;5.65;;;4.18;;
63218;SDS011;49320;52.512;13.448;2022-12-24T01:17:35;5.57;;;4.15;;
63218;SDS011;49320;52.512;13.448;2022-12-24T01:20:04;7.38;;;4.50;;
63218;SDS011;49320;52.512;13.448;2022-12-24T01:22:33;4.68;;;4.07;;
63218;SDS011;49320;52.512;13.448;2022-12-24T01:25:00;4.75;;;4.28;;
63218;SDS011;49320;52.512;13.448;2022-12-24T01:27:27;4.78;;;4.07;;
63218;SDS011;49320;52.512;13.448;2022-12-24T01:29:54;4.50;;;4.10;;
63218;SDS011;49320;52.512;13.448;2022-12-24T01:32:21;5.60;;;4.97;;
63218;SDS011;49320;52.512;13.448;2022-12-24T01:34:48;5.22;;;4.70;;
63218;SDS011;49320;52.512;13.448;2022-12-24T01:37:15;4.70;;;4.03;;
63218;SDS011;49320;52.512;13.448;2022-12-24T01:39:41;5.18;;;4.50;;
63218;SDS011;49320;52.512;13.448;2022-12-24T01:42:18;5.18;;;4.35;;
63218;SDS011;49320;52.512;13.448;2022-12-24T01:54:29;5.25;;;4.45;;
63218;SDS011;49320;52.512;13.448;2022-12-24T01:57:06;5.53;;;4.75;;
63218;SDS011;49320;52.512;13.448;2022-12-24T01:59:41;5.63;;;4.97;;
63218;SDS011;49320;52.512;13.448;2022-12-24T02:02:14;5.68;;;4.50;;
63218;SDS011;49320;52.512;13.448;2022-12-24T02:04:46;4.43;;;3.92;;
63218;SDS011;49320;52.512;13.448;2022-12-24T02:07:32;4.35;;;3.95;;
63218;SDS011;49320;52.512;13.448;2022-12-24T02:09:59;5.47;;;4.30;;
63218;SDS011;49320;52.512;13.448;2022-12-24T02:12:27;5.40;;;4.90;;
63218;SDS011;49320;52.512;13.448;2022-12-24T02:14:59;5.28;;;4.35;;
63218;SDS011;49320;52.512;13.448;2022-12-24T02:17:34;5.10;;;4.60;;
63218;SDS011;49320;52.512;13.448;2022-12-24T02:27:09;5.65;;;4.63;;
63218;SDS011;49320;52.512;13.448;2022-12-24T02:29:59;5.28;;;4.25;;
63218;SDS011;49320;52.512;13.448;2022-12-24T02:32:43;4.88;;;4.38;;
63218;SDS011;49320;52.512;13.448;2022-12-24T02:38:00;5.88;;;5.30;;
63218;SDS011;49320;52.512;13.448;2022-12-24T02:40:40;5.32;;;4.70;;
63218;SDS011;49320;52.512;13.448;2022-12-24T02:43:23;5.95;;;5.35;;
63218;SDS011;49320;52.512;13.448;2022-12-24T02:46:01;6.00;;;5.35;;
63218;SDS011;49320;52.512;13.448;2022-12-24T02:48:46;5.80;;;5.15;;
63218;SDS011;49320;52.512;13.448;2022-12-24T02:51:14;5.50;;;5.00;;
63218;SDS011;49320;52.512;13.448;2022-12-24T02:53:41;5.80;;;5.25;;
63218;SDS011;49320;52.512;13.448;2022-12-24T03:02:08;5.35;;;4.85;;
63218;SDS011;49320;52.512;13.448;2022-12-24T03:08:03;6.45;;;5.72;;
63218;SDS011;49320;52.512;13.448;2022-12-24T03:10:54;7.80;;;5.70;;
63218;SDS011;49320;52.512;13.448;2022-12-24T03:13:30;6.90;;;5.75;;
63218;SDS011;49320;52.512;13.448;2022-12-24T03:15:57;6.32;;;5.47;;
63218;SDS011;49320;52.512;13.448;2022-12-24T03:18:25;6.75;;;6.00;;
63218;SDS011;49320;52.512;13.448;2022-12-24T03:20:59;7.07;;;6.15;;
63218;SDS011;49320;52.512;13.448;2022-12-24T03:23:46;6.32;;;5.72;;
63218;SDS011;49320;52.512;13.448;2022-12-24T03:26:15;6.90;;;5.50;;
63218;SDS011;49320;52.512;13.448;2022-12-24T03:28:45;5.93;;;5.32;;
63218;SDS011;49320;52.512;13.448;2022-12-24T03:31:13;6.75;;;6.05;;
63218;SDS011;49320;52.512;13.448;2022-12-24T03:33:41;6.72;;;6.03;;
63218;SDS011;49320;52.512;13.448;2022-12-24T03:36:08;6.50;;;5.85;;
63218;SDS011;49320;52.512;13.448;2022-12-24T03:38:35;7.43;;;6.18;;
63218;SDS011;49320;52.512;13.448;2022-12-24T03:41:02;7.85;;;6.53;;
63218;SDS011;49320;52.512;13.448;2022-12-24T03:43:29;7.18;;;6.47;;
63218;SDS011;49320;52.512;13.448;2022-12-24T03:45:56;7.03;;;6.32;;
63218;SDS011;49320;52.512;13.448;2022-12-24T03:48:23;6.68;;;5.97;;
63218;SDS011;49320;52.512;13.448;2022-12-24T03:50:57;6.90;;;6.20;;
63218;SDS011;49320;52.512;13.448;2022-12-24T03:53:25;7.38;;;6.00;;
63218;SDS011;49320;52.512;13.448;2022-12-24T03:55:51;6.88;;;6.25;;
63218;SDS011;49320;52.512;13.448;2022-12-24T03:58:18;6.93;;;6.15;;
63218;SDS011;49320;52.512;13.448;2022-12-24T04:00:45;6.75;;;6.05;;
63218;SDS011;49320;52.512;13.448;2022-12-24T04:03:12;6.38;;;5.75;;
63218;SDS011;49320;52.512;13.448;2022-12-24T04:05:39;6.20;;;5.35;;
63218;SDS011;49320;52.512;13.448;2022-12-24T04:08:06;7.13;;;5.70;;
63218;SDS011;49320;52.512;13.448;2022-12-24T04:10:33;8.02;;;6.75;;
63218;SDS011;49320;52.512;13.448;2022-12-24T04:12:59;6.25;;;5.65;;
63218;SDS011;49320;52.512;13.448;2022-12-24T04:15:26;6.13;;;5.53;;
63218;SDS011;49320;52.512;13.448;2022-12-24T04:17:53;6.13;;;5.30;;
63218;SDS011;49320;52.512;13.448;2022-12-24T04:20:20;6.30;;;5.60;;
63218;SDS011;49320;52.512;13.448;2022-12-24T04:22:47;6.13;;;5.53;;
63218;SDS011;49320;52.512;13.448;2022-12-24T04:25:14;6.05;;;5.45;;
63218;SDS011;49320;52.512;13.448;2022-12-24T04:27:40;6.38;;;5.72;;
63218;SDS011;49320;52.512;13.448;2022-12-24T04:30:07;7.18;;;5.72;;
63218;SDS011;49320;52.512;13.448;2022-12-24T04:32:35;6.25;;;5.45;;
63218;SDS011;49320;52.512;13.448;2022-12-24T04:35:01;7.82;;;5.85;;
63218;SDS011;49320;52.512;13.448;2022-12-24T04:37:28;7.00;;;6.25;;
63218;SDS011;49320;52.512;13.448;2022-12-24T04:39:55;6.53;;;5.68;;
63218;SDS011;49320;52.512;13.448;2022-12-24T04:42:22;6.75;;;5.78;;
63218;SDS011;49320;52.512;13.448;2022-12-24T04:44:48;6.38;;;5.43;;
63218;SDS011;49320;52.512;13.448;2022-12-24T04:47:15;6.15;;;5.55;;
63218;SDS011;49320;52.512;13.448;2022-12-24T04:49:42;7.20;;;5.70;;
63218;SDS011;49320;52.512;13.448;2022-12-24T04:52:08;6.45;;;5.53;;
63218;SDS011;49320;52.512;13.448;2022-12-24T04:54:35;6.32;;;5.60;;
63218;SDS011;49320;52.512;13.448;2022-12-24T04:57:02;6.10;;;5.50;;
63218;SDS011;49320;52.512;13.448;2022-12-24T04:59:29;6.70;;;5.32;;
63218;SDS011;49320;52.512;13.448;2022-12-24T05:01:56;6.18;;;5.57;;
63218;SDS011;49320;52.512;13.448;2022-12-24T05:04:23;6.82;;;6.13;;
63218;SDS011;49320;52.512;13.448;2022-12-24T05:06:50;6.53;;;5.82;;
63218;SDS011;49320;52.512;13.448;2022-12-24T05:09:17;6.18;;;5.47;;
63218;SDS011;49320;52.512;13.448;2022-12-24T05:11:43;6.45;;;5.75;;
63218;SDS011;49320;52.512;13.448;2022-12-24T05:14:10;6.45;;;5.43;;
63218;SDS011;49320;52.512;13.448;2022-12-24T05:16:37;6.53;;;5.45;;
63218;SDS011;49320;52.512;13.448;2022-12-24T05:19:04;6.63;;;5.93;;
63218;SDS011;49320;52.512;13.448;2022-12-24T05:21:31;6.22;;;5.35;;
63218;SDS011;49320;52.512;13.448;2022-12-24T05:23:57;6.43;;;5.72;;
63218;SDS011;49320;52.512;13.448;2022-12-24T05:26:53;6.75;;;5.97;;
63218;SDS011;49320;52.512;13.448;2022-12-24T05:29:23;6.82;;;5.88;;
63218;SDS011;49320;52.512;13.448;2022-12-24T05:31:50;6.45;;;5.78;;
63218;SDS011;49320;52.512;13.448;2022-12-24T05:34:16;6.72;;;6.03;;
63218;SDS011;49320;52.512;13.448;2022-12-24T05:36:43;7.10;;;5.93;;
63218;SDS011;49320;52.512;13.448;2022-12-24T05:39:14;6.05;;;5.45;;
63218;SDS011;49320;52.512;13.448;2022-12-24T05:41:43;6.60;;;5.75;;
63218;SDS011;49320;52.512;13.448;2022-12-24T05:44:10;7.38;;;6.43;;
63218;SDS011;49320;52.512;13.448;2022-12-24T05:46:37;7.25;;;6.13;;
63218;SDS011;49320;52.512;13.448;2022-12-24T05:49:04;7.28;;;6.45;;
63218;SDS011;49320;52.512;13.448;2022-12-24T05:51:31;7.78;;;6.65;;
63218;SDS011;49320;52.512;13.448;2022-12-24T05:53:58;7.63;;;6.57;;
63218;SDS011;49320;52.512;13.448;2022-12-24T05:56:25;9.50;;;6.90;;
63218;SDS011;49320;52.512;13.448;2022-12-24T05:58:52;8.35;;;6.72;;
63218;SDS011;49320;52.512;13.448;2022-12-24T06:01:20;7.63;;;6.82;;
63218;SDS011;49320;52.512;13.448;2022-12-24T06:03:48;7.80;;;6.72;;
63218;SDS011;49320;52.512;13.448;2022-12-24T06:06:22;8.15;;;7.10;;
63218;SDS011;49320;52.512;13.448;2022-12-24T06:08:53;7.68;;;6.40;;
63218;SDS011;49320;52.512;13.448;2022-12-24T06:11:21;8.15;;;7.05;;
63218;SDS011;49320;52.512;13.448;2022-12-24T06:13:52;6.93;;;6.22;;
63218;SDS011;49320;52.512;13.448;2022-12-24T06:16:19;8.00;;;6.85;;
63218;SDS011;49320;52.512;13.448;2022-12-24T06:18:47;10.45;;;7.10;;
63218;SDS011;49320;52.512;13.448;2022-12-24T06:21:15;7.70;;;6.38;;
63218;SDS011;49320;52.512;13.448;2022-12-24T06:23:42;7.95;;;7.13;;
63218;SDS011;49320;52.512;13.448;2022-12-24T06:26:11;7.65;;;6.43;;
63218;SDS011;49320;52.512;13.448;2022-12-24T06:28:41;9.10;;;7.25;;
63218;SDS011;49320;52.512;13.448;2022-12-24T06:31:10;7.97;;;7.18;;
63218;SDS011;49320;52.512;13.448;2022-12-24T06:33:40;8.70;;;6.88;;
63218;SDS011;49320;52.512;13.448;2022-12-24T06:36:07;8.60;;;7.20;;
63218;SDS011;49320;52.512;13.448;2022-12-24T06:38:43;8.40;;;6.43;;
63218;SDS011;49320;52.512;13.448;2022-12-24T06:41:11;7.60;;;6.55;;
63218;SDS011;49320;52.512;13.448;2022-12-24T06:43:42;9.25;;;7.03;;
63218;SDS011;49320;52.512;13.448;2022-12-24T06:46:11;7.97;;;7.18;;
63218;SDS011;49320;52.512;13.448;2022-12-24T06:48:39;8.13;;;6.47;;
63218;SDS011;49320;52.512;13.448;2022-12-24T06:51:05;7.55;;;6.75;;
63218;SDS011;49320;52.512;13.448;2022-12-24T06:53:32;8.70;;;6.32;;
63218;SDS011;49320;52.512;13.448;2022-12-24T06:56:00;8.57;;;7.30;;
63218;SDS011;49320;52.512;13.448;2022-12-24T06:58:31;7.43;;;6.68;;
63218;SDS011;49320;52.512;13.448;2022-12-24T07:01:00;8.18;;;6.57;;
63218;SDS011;49320;52.512;13.448;2022-12-24T07:03:29;7.97;;;7.00;;
63218;SDS011;49320;52.512;13.448;2022-12-24T07:05:57;8.45;;;7.07;;
63218;SDS011;49320;52.512;13.448;2022-12-24T07:08:24;8.65;;;7.30;;
63218;SDS011;49320;52.512;13.448;2022-12-24T07:10:52;7.53;;;6.72;;
63218;SDS011;49320;52.512;13.448;2022-12-24T07:13:19;8.10;;;6.78;;
63218;SDS011;49320;52.512;13.448;2022-12-24T07:15:55;7.75;;;6.53;;
63218;SDS011;49320;52.512;13.448;2022-12-24T07:18:27;12.38;;;6.82;;
63218;SDS011;49320;52.512;13.448;2022-12-24T07:20:55;9.25;;;7.25;;
63218;SDS011;49320;52.512;13.448;2022-12-24T07:23:22;8.80;;;7.30;;
63218;SDS011;49320;52.512;13.448;2022-12-24T07:25:50;10.38;;;7.93;;
63218;SDS011;49320;52.512;13.448;2022-12-24T07:28:17;7.88;;;6.88;;
63218;SDS011;49320;52.512;13.448;2022-12-24T07:30:52;8.30;;;7.03;;
63218;SDS011;49320;52.512;13.448;2022-12-24T07:33:19;8.57;;;7.40;;
63218;SDS011;49320;52.512;13.448;2022-12-24T07:35:46;8.02;;;7.18;;
63218;SDS011;49320;52.512;13.448;2022-12-24T07:38:20;7.97;;;7.18;;
63218;SDS011;49320;52.512;13.448;2022-12-24T07:40:48;8.50;;;7.60;;
63218;SDS011;49320;52.512;13.448;2022-12-24T07:43:14;8.68;;;7.22;;
63218;SDS011;49320;52.512;13.448;2022-12-24T07:45:41;8.18;;;6.40;;
63218;SDS011;49320;52.512;13.448;2022-12-24T07:48:08;9.18;;;7.00;;
63218;SDS011;49320;52.512;13.448;2022-12-24T07:50:34;7.63;;;6.78;;
63218;SDS011;49320;52.512;13.448;2022-12-24T07:53:01;8.80;;;7.38;;
63218;SDS011;49320;52.512;13.448;2022-12-24T07:55:28;8.57;;;7.50;;
63218;SDS011;49320;52.512;13.448;2022-12-24T07:57:55;9.07;;;7.30;;
63218;SDS011;49320;52.512;13.448;2022-12-24T08:00:21;9.93;;;8.23;;
63218;SDS011;49320;52.512;13.448;2022-12-24T08:02:48;7.90;;;6.82;;
63218;SDS011;49320;52.512;13.448;2022-12-24T08:05:15;7.60;;;6.32;;
63218;SDS011;49320;52.512;13.448;2022-12-24T08:07:42;8.63;;;6.97;;
63218;SDS011;49320;52.512;13.448;2022-12-24T08:10:09;8.90;;;7.85;;
63218;SDS011;49320;52.512;13.448;2022-12-24T08:12:36;8.80;;;7.25;;
63218;SDS011;49320;52.512;13.448;2022-12-24T08:15:02;9.38;;;7.63;;
63218;SDS011;49320;52.512;13.448;2022-12-24T08:17:30;8.95;;;6.63;;
63218;SDS011;49320;52.512;13.448;2022-12-24T08:19:57;10.07;;;7.47;;
63218;SDS011;49320;52.512;13.448;2022-12-24T08:22:24;10.18;;;8.13;;
63218;SDS011;49320;52.512;13.448;2022-12-24T08:24:51;8.77;;;7.88;;
63218;SDS011;49320;52.512;13.448;2022-12-24T08:27:18;9.10;;;7.78;;
63218;SDS011;49320;52.512;13.448;2022-12-24T08:29:44;7.80;;;7.00;;
63218;SDS011;49320;52.512;13.448;2022-12-24T08:32:11;9.63;;;7.53;;
63218;SDS011;49320;52.512;13.448;2022-12-24T08:34:38;9.15;;;8.23;;
63218;SDS011;49320;52.512;13.448;2022-12-24T08:37:05;10.25;;;7.47;;
63218;SDS011;49320;52.512;13.448;2022-12-24T08:39:31;7.95;;;6.78;;
63218;SDS011;49320;52.512;13.448;2022-12-24T08:41:58;7.05;;;6.35;;
63218;SDS011;49320;52.512;13.448;2022-12-24T08:44:25;9.20;;;6.93;;
63218;SDS011;49320;52.512;13.448;2022-12-24T08:46:52;7.78;;;6.15;;
63218;SDS011;49320;52.512;13.448;2022-12-24T08:49:19;8.18;;;7.22;;
63218;SDS011;49320;52.512;13.448;2022-12-24T08:51:46;8.00;;;6.78;;
63218;SDS011;49320;52.512;13.448;2022-12-24T08:54:14;7.63;;;6.63;;
63218;SDS011;49320;52.512;13.448;2022-12-24T08:56:40;7.60;;;6.75;;
63218;SDS011;49320;52.512;13.448;2022-12-24T08:59:07;10.35;;;7.35;;
63218;SDS011;49320;52.512;13.448;2022-12-24T09:01:36;7.40;;;6.30;;
63218;SDS011;49320;52.512;13.448;2022-12-24T09:04:04;8.40;;;6.75;;
63218;SDS011;49320;52.512;13.448;2022-12-24T09:06:31;9.32;;;7.50;;
63218;SDS011;49320;52.512;13.448;2022-12-24T09:08:58;8.77;;;7.18;;
63218;SDS011;49320;52.512;13.448;2022-12-24T09:11:25;7.50;;;6.57;;
63218;SDS011;49320;52.512;13.448;2022-12-24T09:13:52;8.23;;;6.97;;
63218;SDS011;49320;52.512;13.448;2022-12-24T09:16:20;9.30;;;7.25;;
63218;SDS011;49320;52.512;13.448;2022-12-24T09:18:47;8.52;;;7.10;;
63218;SDS011;49320;52.512;13.448;2022-12-24T09:21:14;7.75;;;6.68;;
63218;SDS011;49320;52.512;13.448;2022-12-24T09:23:43;7.65;;;6.80;;
63218;SDS011;49320;52.512;13.448;2022-12-24T09:26:17;8.25;;;6.63;;
63218;SDS011;49320;52.512;13.448;2022-12-24T09:28:50;8.43;;;6.65;;
63218;SDS011;49320;52.512;13.448;2022-12-24T09:31:18;8.25;;;6.82;;
63218;SDS011;49320;52.512;13.448;2022-12-24T09:33:47;7.70;;;6.43;;
63218;SDS011;49320;52.512;13.448;2022-12-24T09:36:16;8.10;;;6.90;;
63218;SDS011;49320;52.512;13.448;2022-12-24T09:38:44;8.80;;;7.60;;
63218;SDS011;49320;52.512;13.448;2022-12-24T09:44:19;8.15;;;7.25;;
63218;SDS011;49320;52.512;13.448;2022-12-24T09:46:59;8.88;;;7.70;;
63218;SDS011;49320;52.512;13.448;2022-12-24T09:49:39;7.85;;;6.80;;
63218;SDS011;49320;52.512;13.448;2022-12-24T09:52:11;8.50;;;7.28;;
63218;SDS011;49320;52.512;13.448;2022-12-24T09:54:55;8.15;;;6.40;;
63218;SDS011;49320;52.512;13.448;2022-12-24T09:57:34;9.65;;;7.10;;
63218;SDS011;49320;52.512;13.448;2022-12-24T10:00:04;8.00;;;7.03;;
63218;SDS011;49320;52.512;13.448;2022-12-24T10:02:44;7.45;;;6.65;;
63218;SDS011;49320;52.512;13.448;2022-12-24T10:05:12;7.20;;;6.50;;
63218;SDS011;49320;52.512;13.448;2022-12-24T10:10:30;7.85;;;7.05;;
63218;SDS011;49320;52.512;13.448;2022-12-24T10:16:08;7.47;;;6.22;;
63218;SDS011;49320;52.512;13.448;2022-12-24T10:18:58;8.18;;;7.28;;
63218;SDS011;49320;52.512;13.448;2022-12-24T10:22:29;8.75;;;7.28;;
63218;SDS011;49320;52.512;13.448;2022-12-24T10:25:03;8.80;;;7.45;;
63218;SDS011;49320;52.512;13.448;2022-12-24T10:27:42;8.95;;;7.82;;
63218;SDS011;49320;52.512;13.448;2022-12-24T10:30:12;8.48;;;7.57;;
63218;SDS011;49320;52.512;13.448;2022-12-24T10:32:42;10.18;;;7.65;;
63218;SDS011;49320;52.512;13.448;2022-12-24T10:35:18;9.45;;;8.30;;
63218;SDS011;49320;52.512;13.448;2022-12-24T10:37:54;9.30;;;8.18;;
63218;SDS011;49320;52.512;13.448;2022-12-24T10:40:28;10.00;;;8.77;;
63218;SDS011;49320;52.512;13.448;2022-12-24T10:43:08;9.98;;;8.30;;
63218;SDS011;49320;52.512;13.448;2022-12-24T10:45:49;9.23;;;8.07;;
63218;SDS011;49320;52.512;13.448;2022-12-24T10:48:28;10.43;;;8.45;;
63218;SDS011;49320;52.512;13.448;2022-12-24T10:53:55;10.60;;;8.57;;
63218;SDS011;49320;52.512;13.448;2022-12-24T10:56:36;9.52;;;8.52;;
63218;SDS011;49320;52.512;13.448;2022-12-24T11:02:32;11.70;;;9.88;;
63218;SDS011;49320;52.512;13.448;2022-12-24T11:05:04;8.52;;;7.63;;
63218;SDS011;49320;52.512;13.448;2022-12-24T11:08:02;8.23;;;7.00;;
63218;SDS011;49320;52.512;13.448;2022-12-24T11:10:44;7.38;;;6.68;;
63218;SDS011;49320;52.512;13.448;2022-12-24T11:16:07;7.32;;;6.38;;
63218;SDS011;49320;52.512;13.448;2022-12-24T11:18:56;6.53;;;5.88;;
63218;SDS011;49320;52.512;13.448;2022-12-24T11:21:28;7.28;;;6.57;;
63218;SDS011;49320;52.512;13.448;2022-12-24T11:26:38;6.55;;;5.85;;
63218;SDS011;49320;52.512;13.448;2022-12-24T11:31:52;6.85;;;6.15;;
63218;SDS011;49320;52.512;13.448;2022-12-24T11:34:43;6.45;;;5.78;;
63218;SDS011;49320;52.512;13.448;2022-12-24T11:37:20;7.10;;;5.95;;
63218;SDS011;49320;52.512;13.448;2022-12-24T11:39:50;6.68;;;5.97;;
63218;SDS011;49320;52.512;13.448;2022-12-24T11:42:35;6.00;;;5.45;;
63218;SDS011;49320;52.512;13.448;2022-12-24T11:45:20;6.25;;;5.65;;
63218;SDS011;49320;52.512;13.448;2022-12-24T11:47:51;6.28;;;5.68;;
63218;SDS011;49320;52.512;13.448;2022-12-24T11:50:32;6.07;;;5.40;;
63218;SDS011;49320;52.512;13.448;2022-12-24T12:00:51;5.82;;;5.22;;
63218;SDS011;49320;52.512;13.448;2022-12-24T12:03:42;6.55;;;5.43;;
63218;SDS011;49320;52.512;13.448;2022-12-24T12:08:43;6.00;;;5.32;;
63218;SDS011;49320;52.512;13.448;2022-12-24T12:11:12;5.43;;;4.90;;
63218;SDS011;49320;52.512;13.448;2022-12-24T12:13:40;5.85;;;4.97;;
63218;SDS011;49320;52.512;13.448;2022-12-24T12:16:19;6.18;;;5.10;;
63218;SDS011;49320;52.512;13.448;2022-12-24T12:19:19;4.95;;;4.18;;
63218;SDS011;49320;52.512;13.448;2022-12-24T12:21:50;5.18;;;4.40;;
63218;SDS011;49320;52.512;13.448;2022-12-24T12:24:25;5.07;;;4.57;;
63218;SDS011;49320;52.512;13.448;2022-12-24T12:30:03;4.30;;;3.90;;
63218;SDS011;49320;52.512;13.448;2022-12-24T12:35:33;5.25;;;4.22;;
63218;SDS011;49320;52.512;13.448;2022-12-24T12:38:05;5.35;;;4.05;;
63218;SDS011;49320;52.512;13.448;2022-12-24T12:52:39;4.28;;;3.88;;
63218;SDS011;49320;52.512;13.448;2022-12-24T12:55:59;5.30;;;3.90;;
63218;SDS011;49320;52.512;13.448;2022-12-24T13:05:10;4.47;;;3.85;;
63218;SDS011;49320;52.512;13.448;2022-12-24T13:08:18;5.90;;;4.07;;
63218;SDS011;49320;52.512;13.448;2022-12-24T13:11:15;4.55;;;3.58;;
63218;SDS011;49320;52.512;13.448;2022-12-24T13:14:27;5.35;;;3.40;;
63218;SDS011;49320;52.512;13.448;2022-12-24T13:17:26;6.18;;;3.72;;
63218;SDS011;49320;52.512;13.448;2022-12-24T13:20:27;5.13;;;3.70;;
63218;SDS011;49320;52.512;13.448;2022-12-24T13:22:58;6.00;;;3.85;;
63218;SDS011;49320;52.512;13.448;2022-12-24T13:25:31;6.57;;;4.20;;
63218;SDS011;49320;52.512;13.448;2022-12-24T13:33:46;6.10;;;3.80;;
63218;SDS011;49320;52.512;13.448;2022-12-24T13:36:16;7.20;;;3.65;;
63218;SDS011;49320;52.512;13.448;2022-12-24T13:38:49;5.93;;;3.63;;
63218;SDS011;49320;52.512;13.448;2022-12-24T13:46:59;5.65;;;4.00;;
63218;SDS011;49320;52.512;13.448;2022-12-24T13:49:41;6.53;;;3.10;;
63218;SDS011;49320;52.512;13.448;2022-12-24T13:52:21;5.65;;;2.70;;
63218;SDS011;49320;52.512;13.448;2022-12-24T13:55:10;7.47;;;3.40;;
63218;SDS011;49320;52.512;13.448;2022-12-24T14:02:47;6.45;;;3.28;;
63218;SDS011;49320;52.512;13.448;2022-12-24T14:05:32;7.35;;;3.25;;
63218;SDS011;49320;52.512;13.448;2022-12-24T14:08:10;6.70;;;2.72;;
63218;SDS011;49320;52.512;13.448;2022-12-24T14:11:06;6.45;;;3.30;;
63218;SDS011;49320;52.512;13.448;2022-12-24T14:19:00;9.38;;;3.20;;
63218;SDS011;49320;52.512;13.448;2022-12-24T14:22:04;7.95;;;3.03;;
63218;SDS011;49320;52.512;13.448;2022-12-24T14:24:56;6.13;;;2.83;;
63218;SDS011;49320;52.512;13.448;2022-12-24T14:27:32;7.53;;;2.88;;
63218;SDS011;49320;52.512;13.448;2022-12-24T14:30:21;7.65;;;2.80;;
63218;SDS011;49320;52.512;13.448;2022-12-24T14:32:54;5.95;;;2.78;;
63218;SDS011;49320;52.512;13.448;2022-12-24T14:35:23;7.47;;;3.03;;
63218;SDS011;49320;52.512;13.448;2022-12-24T14:37:57;7.22;;;2.58;;
63218;SDS011;49320;52.512;13.448;2022-12-24T14:40:30;9.23;;;2.90;;
63218;SDS011;49320;52.512;13.448;2022-12-24T14:43:21;6.63;;;2.35;;
63218;SDS011;49320;52.512;13.448;2022-12-24T14:46:21;7.20;;;2.78;;
63218;SDS011;49320;52.512;13.448;2022-12-24T14:49:03;7.05;;;2.55;;
63218;SDS011;49320;52.512;13.448;2022-12-24T14:54:59;9.55;;;3.60;;
63218;SDS011;49320;52.512;13.448;2022-12-24T15:01:02;8.68;;;3.20;;
63218;SDS011;49320;52.512;13.448;2022-12-24T15:03:58;7.78;;;3.00;;
63218;SDS011;49320;52.512;13.448;2022-12-24T15:06:32;8.50;;;3.90;;
63218;SDS011;49320;52.512;13.448;2022-12-24T15:09:03;10.13;;;4.03;;
63218;SDS011;49320;52.512;13.448;2022-12-24T15:11:35;11.27;;;3.78;;
63218;SDS011;49320;52.512;13.448;2022-12-24T15:14:02;10.25;;;3.67;;
63218;SDS011;49320;52.512;13.448;2022-12-24T15:16:32;9.52;;;3.70;;
63218;SDS011;49320;52.512;13.448;2022-12-24T15:19:03;9.32;;;3.75;;
63218;SDS011;49320;52.512;13.448;2022-12-24T15:21:38;8.00;;;3.42;;
63218;SDS011;49320;52.512;13.448;2022-12-24T15:24:22;8.52;;;3.75;;
63218;SDS011;49320;52.512;13.448;2022-12-24T15:26:50;6.88;;;3.22;;
63218;SDS011;49320;52.512;13.448;2022-12-24T15:29:21;9.35;;;3.13;;
63218;SDS011;49320;52.512;13.448;2022-12-24T15:31:55;7.28;;;3.05;;
63218;SDS011;49320;52.512;13.448;2022-12-24T15:34:39;7.10;;;2.80;;
63218;SDS011;49320;52.512;13.448;2022-12-24T15:37:19;8.13;;;3.33;;
63218;SDS011;49320;52.512;13.448;2022-12-24T15:40:09;7.70;;;3.30;;
63218;SDS011;49320;52.512;13.448;2022-12-24T15:42:47;9.60;;;4.10;;
63218;SDS011;49320;52.512;13.448;2022-12-24T15:45:16;9.70;;;3.83;;
63218;SDS011;49320;52.512;13.448;2022-12-24T15:50:36;9.25;;;3.15;;
63218;SDS011;49320;52.512;13.448;2022-12-24T15:53:14;10.95;;;4.30;;
63218;SDS011;49320;52.512;13.448;2022-12-24T15:58:42;7.95;;;3.40;;
63218;SDS011;49320;52.512;13.448;2022-12-24T16:04:09;9.68;;;3.47;;
63218;SDS011;49320;52.512;13.448;2022-12-24T16:07:00;9.88;;;3.85;;
63218;SDS011;49320;52.512;13.448;2022-12-24T16:09:40;9.43;;;3.17;;
63218;SDS011;49320;52.512;13.448;2022-12-24T16:12:21;9.45;;;3.83;;
63218;SDS011;49320;52.512;13.448;2022-12-24T16:14:52;6.85;;;3.40;;
63218;SDS011;49320;52.512;13.448;2022-12-24T16:17:25;6.47;;;3.30;;
63218;SDS011;49320;52.512;13.448;2022-12-24T16:19:59;7.72;;;3.40;;
63218;SDS011;49320;52.512;13.448;2022-12-24T16:22:32;10.38;;;4.28;;
63218;SDS011;49320;52.512;13.448;2022-12-24T16:25:18;7.85;;;3.63;;
63218;SDS011;49320;52.512;13.448;2022-12-24T16:27:52;8.55;;;3.70;;
63218;SDS011;49320;52.512;13.448;2022-12-24T16:30:25;7.45;;;3.25;;
63218;SDS011;49320;52.512;13.448;2022-12-24T16:32:52;10.50;;;3.97;;
63218;SDS011;49320;52.512;13.448;2022-12-24T16:35:21;7.38;;;3.67;;
63218;SDS011;49320;52.512;13.448;2022-12-24T16:37:52;7.85;;;3.60;;
63218;SDS011;49320;52.512;13.448;2022-12-24T16:40:20;10.50;;;4.35;;
63218;SDS011;49320;52.512;13.448;2022-12-24T16:42:53;9.82;;;3.80;;
63218;SDS011;49320;52.512;13.448;2022-12-24T16:45:40;9.25;;;4.32;;
63218;SDS011;49320;52.512;13.448;2022-12-24T16:48:09;9.32;;;4.00;;
63218;SDS011;49320;52.512;13.448;2022-12-24T16:50:46;9.65;;;4.15;;
63218;SDS011;49320;52.512;13.448;2022-12-24T16:53:14;10.85;;;4.25;;
63218;SDS011;49320;52.512;13.448;2022-12-24T16:55:43;8.48;;;4.50;;
63218;SDS011;49320;52.512;13.448;2022-12-24T16:58:13;9.23;;;4.43;;
63218;SDS011;49320;52.512;13.448;2022-12-24T17:00:41;8.48;;;4.35;;
63218;SDS011;49320;52.512;13.448;2022-12-24T17:03:10;9.73;;;4.88;;
63218;SDS011;49320;52.512;13.448;2022-12-24T17:05:39;9.65;;;4.38;;
63218;SDS011;49320;52.512;13.448;2022-12-24T17:08:09;7.30;;;4.03;;